Time;durP1;ratioP1;P1;durP2;ratioP2;P2;SDS_P1;SDS_P2;PMS_P1;PMS_P2;Temp;Humidity;BMP_temperature;BMP_pressure;BME280_temperature;BME280_humidity;BME280_pressure;Samples;Min_cycle;Max_cycle;Signal;HPM_P1;HPM_P2
2021/08/29 00:01:50;;;;;;;5.97;4.23;;;14.30;99.90;;;;;;5030760;28;20667;-49
2021/08/29 00:04:16;;;;;;;4.57;4.15;;;14.30;99.90;;;;;;5030533;28;20178;-49
2021/08/29 00:06:41;;;;;;;4.37;3.83;;;14.20;99.90;;;;;;5026050;28;20727;-49
2021/08/29 00:09:07;;;;;;;4.27;3.87;;;13.80;99.90;;;;;;5023200;28;21004;-49
2021/08/29 00:11:34;;;;;;;4.53;4.13;;;14.20;99.90;;;;;;5031468;28;20194;-49
2021/08/29 00:14:00;;;;;;;4.20;3.80;;;14.30;99.90;;;;;;5030336;28;20456;-49
2021/08/29 00:16:25;;;;;;;3.83;3.43;;;13.90;99.90;;;;;;5023335;28;20218;-49
2021/08/29 00:18:51;;;;;;;3.80;3.50;;;14.10;99.90;;;;;;5025754;28;20228;-49
2021/08/29 00:21:17;;;;;;;4.70;4.30;;;14.50;99.90;;;;;;5028720;28;20599;-49
2021/08/29 00:23:42;;;;;;;4.00;3.60;;;14.30;99.90;;;;;;5024832;28;20186;-49
2021/08/29 00:26:08;;;;;;;4.07;3.77;;;14.30;99.90;;;;;;5014995;28;20182;-49
2021/08/29 00:28:34;;;;;;;4.07;3.67;;;14.30;99.90;;;;;;5031721;28;20182;-49
2021/08/29 00:31:00;;;;;;;3.77;3.47;;;14.30;99.90;;;;;;5031006;28;20210;-49
2021/08/29 00:33:25;;;;;;;4.20;3.80;;;14.60;99.90;;;;;;5024794;28;20222;-49
2021/08/29 00:35:52;;;;;;;6.17;4.37;;;14.50;99.90;;;;;;5028117;28;20198;-49
2021/08/29 00:38:19;;;;;;;4.38;3.85;;;14.50;99.90;;;;;;5030184;28;20233;-49
2021/08/29 00:40:46;;;;;;;3.97;3.60;;;14.20;99.90;;;;;;5025860;28;20186;-49
2021/08/29 00:43:12;;;;;;;4.60;4.05;;;14.10;99.90;;;;;;5026977;28;20194;-49
2021/08/29 00:45:37;;;;;;;3.53;3.20;;;14.30;99.90;;;;;;5031403;28;20194;-49
2021/08/29 00:48:07;;;;;;;4.13;3.23;;;14.60;99.90;;;;;;5030252;28;20206;-49
2021/08/29 00:50:33;;;;;;;4.57;4.18;;;14.40;99.90;;;;;;5028005;28;20724;-49
2021/08/29 00:53:01;;;;;;;3.83;3.53;;;14.70;99.90;;;;;;5026180;28;20190;-49
2021/08/29 00:55:27;;;;;;;4.30;3.70;;;14.50;99.90;;;;;;5029409;28;20202;-49
2021/08/29 00:57:52;;;;;;;3.80;3.40;;;14.80;99.90;;;;;;5017731;28;20628;-49
2021/08/29 01:00:18;;;;;;;3.83;3.53;;;14.70;99.90;;;;;;5029760;28;20284;-49
2021/08/29 01:02:44;;;;;;;4.23;3.93;;;14.60;99.90;;;;;;5031279;28;20689;-49
2021/08/29 01:05:21;;;;;;;3.83;3.53;;;14.50;99.90;;;;;;5029990;28;20209;-49
2021/08/29 01:08:10;;;;;;;4.05;3.65;;;14.70;99.90;;;;;;5024495;28;21032;-49
2021/08/29 01:10:45;;;;;;;5.97;4.35;;;14.70;99.90;;;;;;5028647;28;20187;-49
2021/08/29 01:13:16;;;;;;;4.32;3.92;;;14.70;99.90;;;;;;5030202;28;20666;-49
2021/08/29 01:15:44;;;;;;;4.20;3.53;;;14.70;99.90;;;;;;5021231;28;20234;-49
2021/08/29 01:18:10;;;;;;;4.00;3.60;;;14.80;99.90;;;;;;5026378;28;20667;-49
2021/08/29 01:21:00;;;;;;;3.95;3.20;;;14.90;99.90;;;;;;5028672;28;20182;-49
2021/08/29 01:23:27;;;;;;;4.05;3.75;;;15.00;99.90;;;;;;5027654;28;20286;-49
2021/08/29 01:26:11;;;;;;;3.67;3.33;;;14.90;99.90;;;;;;5030041;28;20232;-49
2021/08/29 01:28:52;;;;;;;3.90;3.60;;;14.60;99.90;;;;;;5030078;28;20197;-49
2021/08/29 01:31:20;;;;;;;4.25;3.85;;;14.80;99.90;;;;;;5019355;28;20187;-49
2021/08/29 01:33:47;;;;;;;4.00;3.67;;;14.40;99.90;;;;;;5031095;28;20535;-49
2021/08/29 01:36:14;;;;;;;4.75;3.83;;;14.40;99.90;;;;;;5020050;28;20220;-49
2021/08/29 01:38:42;;;;;;;4.70;4.30;;;14.50;99.90;;;;;;5021859;28;20655;-49
2021/08/29 01:41:09;;;;;;;5.30;4.32;;;14.40;99.90;;;;;;5023583;28;20179;-49
2021/08/29 01:43:35;;;;;;;4.20;3.80;;;14.30;99.90;;;;;;5028664;28;20182;-49
2021/08/29 01:46:01;;;;;;;3.83;3.53;;;14.20;99.90;;;;;;5027488;28;20191;-49
2021/08/29 01:48:27;;;;;;;4.65;4.25;;;14.10;99.90;;;;;;5030956;28;20436;-49
2021/08/29 01:50:53;;;;;;;4.75;4.35;;;14.00;99.90;;;;;;5027576;28;20182;-49
2021/08/29 01:53:19;;;;;;;4.83;4.17;;;14.50;99.90;;;;;;5029816;28;20190;-49
2021/08/29 01:55:45;;;;;;;4.87;4.37;;;14.30;99.90;;;;;;5014955;28;20457;-49
2021/08/29 01:58:10;;;;;;;5.00;4.50;;;14.20;99.90;;;;;;5028145;28;20211;-49
2021/08/29 02:00:51;;;;;;;4.13;3.77;;;14.30;99.90;;;;;;5030188;28;20281;-49
2021/08/29 02:03:17;;;;;;;4.85;4.45;;;14.10;99.90;;;;;;5021684;28;20236;-49
2021/08/29 02:05:45;;;;;;;4.97;4.50;;;14.40;99.90;;;;;;5025247;28;20194;-49
2021/08/29 02:08:14;;;;;;;4.70;4.30;;;14.40;99.90;;;;;;5030503;28;20202;-49
2021/08/29 02:10:40;;;;;;;4.70;3.80;;;14.40;99.90;;;;;;5017287;28;20183;-49
2021/08/29 02:13:09;;;;;;;4.70;4.30;;;14.60;99.90;;;;;;5028256;28;20260;-49
2021/08/29 02:15:41;;;;;;;5.35;4.85;;;14.10;99.90;;;;;;5028275;28;20750;-49
2021/08/29 02:18:09;;;;;;;5.05;4.13;;;14.00;99.90;;;;;;5028550;28;20210;-49
2021/08/29 02:20:37;;;;;;;4.80;4.40;;;13.90;99.90;;;;;;5017134;28;20525;-49
2021/08/29 02:23:03;;;;;;;4.70;4.30;;;14.10;99.90;;;;;;5026700;28;20690;-49
2021/08/29 02:25:30;;;;;;;4.60;4.20;;;14.30;99.90;;;;;;5029987;28;20190;-49
2021/08/29 02:27:56;;;;;;;5.32;4.38;;;14.20;99.90;;;;;;5025339;28;20474;-49
2021/08/29 02:30:22;;;;;;;4.05;3.65;;;14.20;99.90;;;;;;5026755;28;20178;-49
2021/08/29 02:32:51;;;;;;;4.22;3.92;;;13.90;99.90;;;;;;5016875;28;20201;-50
2021/08/29 02:35:17;;;;;;;5.05;4.10;;;14.00;99.90;;;;;;5017196;28;20214;-49
2021/08/29 02:37:44;;;;;;;4.63;4.20;;;14.20;99.90;;;;;;5022782;28;20366;-49
2021/08/29 02:40:12;;;;;;;5.00;4.60;;;14.40;99.90;;;;;;5025762;28;20461;-49
2021/08/29 02:42:40;;;;;;;4.10;3.70;;;14.00;99.90;;;;;;5023752;28;20182;-48
2021/08/29 02:45:09;;;;;;;4.78;4.30;;;14.10;99.90;;;;;;5030095;28;20197;-49
2021/08/29 02:47:34;;;;;;;4.53;4.18;;;14.10;99.90;;;;;;5029931;28;20202;-49
2021/08/29 02:50:00;;;;;;;5.33;4.03;;;14.20;99.90;;;;;;5024038;28;20190;-49
2021/08/29 02:52:28;;;;;;;5.03;4.53;;;14.00;99.90;;;;;;5029158;28;20232;-49
2021/08/29 02:54:56;;;;;;;4.88;4.32;;;13.70;99.90;;;;;;5029143;28;20545;-49
2021/08/29 02:57:24;;;;;;;4.20;3.80;;;14.00;99.90;;;;;;5017881;28;20718;-49
2021/08/29 02:59:50;;;;;;;4.80;4.30;;;13.90;99.90;;;;;;5020802;28;20237;-50
2021/08/29 03:02:16;;;;;;;4.47;4.10;;;14.20;99.90;;;;;;5017994;28;20210;-48
2021/08/29 03:04:42;;;;;;;4.90;4.40;;;13.70;99.90;;;;;;5026721;28;20535;-49
2021/08/29 03:07:08;;;;;;;5.50;5.00;;;14.00;99.90;;;;;;5025257;28;20456;-49
2021/08/29 03:09:34;;;;;;;5.00;4.57;;;14.00;99.90;;;;;;5025090;28;20632;-49
2021/08/29 03:12:03;;;;;;;5.43;4.97;;;13.70;99.90;;;;;;5032792;28;20225;-49
2021/08/29 03:14:29;;;;;;;4.93;4.50;;;13.80;99.90;;;;;;5032702;28;20860;-49
2021/08/29 03:16:55;;;;;;;5.43;4.93;;;13.80;99.90;;;;;;5028980;28;20451;-49
2021/08/29 03:19:21;;;;;;;5.30;4.80;;;14.10;99.90;;;;;;5021711;28;20460;-49
2021/08/29 03:21:47;;;;;;;4.88;4.38;;;14.00;99.90;;;;;;5024202;28;20720;-49
2021/08/29 03:24:14;;;;;;;6.47;4.70;;;13.60;99.90;;;;;;5033632;28;20261;-49
2021/08/29 03:26:39;;;;;;;5.65;4.60;;;13.60;99.90;;;;;;5031349;28;20206;-48
2021/08/29 03:29:05;;;;;;;5.27;4.67;;;13.90;99.90;;;;;;5033216;28;20506;-49
2021/08/29 03:31:31;;;;;;;4.30;3.90;;;13.60;99.90;;;;;;5020890;28;20198;-48
2021/08/29 03:33:59;;;;;;;5.07;4.57;;;13.70;99.90;;;;;;5031387;28;20475;-49
2021/08/29 03:36:31;;;;;;;4.57;4.18;;;13.80;99.90;;;;;;5026064;28;20275;-49
2021/08/29 03:38:59;;;;;;;5.85;5.32;;;13.50;99.90;;;;;;5030191;28;20285;-49
2021/08/29 03:41:27;;;;;;;5.60;5.10;;;13.50;99.90;;;;;;5021492;28;20185;-49
2021/08/29 03:43:53;;;;;;;7.18;5.25;;;13.60;99.90;;;;;;5019994;28;20235;-49
2021/08/29 03:46:19;;;;;;;5.40;4.90;;;13.80;99.90;;;;;;5023309;28;20621;-49
2021/08/29 03:48:45;;;;;;;4.10;3.75;;;13.60;99.90;;;;;;5023207;28;21008;-49
2021/08/29 03:51:15;;;;;;;5.17;4.77;;;13.70;99.90;;;;;;5028881;28;20198;-49
2021/08/29 03:53:42;;;;;;;6.47;4.65;;;13.60;99.90;;;;;;5025851;28;20448;-49
2021/08/29 03:56:08;;;;;;;5.43;4.93;;;13.70;99.90;;;;;;5025965;28;20352;-49
2021/08/29 03:58:35;;;;;;;5.78;5.28;;;13.70;99.90;;;;;;5027150;28;20319;-49
2021/08/29 04:01:01;;;;;;;5.50;5.00;;;13.50;99.90;;;;;;5033479;28;20182;-49
2021/08/29 04:03:28;;;;;;;5.03;4.63;;;13.60;99.90;;;;;;5030790;28;20211;-48
2021/08/29 04:05:55;;;;;;;9.27;6.40;;;13.80;99.90;;;;;;5027726;28;20198;-49
2021/08/29 04:08:27;;;;;;;5.88;5.28;;;13.80;99.90;;;;;;5027560;28;20188;-48
2021/08/29 04:10:57;;;;;;;5.15;4.65;;;13.60;99.90;;;;;;5027950;28;20507;-48
2021/08/29 04:13:26;;;;;;;5.43;5.00;;;13.80;99.90;;;;;;5027096;28;20297;-49
2021/08/29 04:15:51;;;;;;;4.65;4.25;;;13.70;99.90;;;;;;5025510;28;20665;-49
2021/08/29 04:18:20;;;;;;;5.93;5.40;;;13.50;99.90;;;;;;5027072;28;20232;-49
2021/08/29 04:20:46;;;;;;;6.20;5.60;;;13.40;99.90;;;;;;5027904;28;20440;-48
2021/08/29 04:23:12;;;;;;;5.82;5.07;;;13.60;99.90;;;;;;5029459;28;20707;-48
2021/08/29 04:25:39;;;;;;;6.03;5.20;;;13.70;99.90;;;;;;5020373;28;20194;-48
2021/08/29 04:28:05;;;;;;;6.03;5.43;;;13.20;99.90;;;;;;5024747;28;20508;-49
2021/08/29 04:30:31;;;;;;;6.00;5.23;;;13.70;99.90;;;;;;5028341;28;20712;-49
2021/08/29 04:32:57;;;;;;;8.45;5.15;;;13.80;99.90;;;;;;5024654;28;20475;-50
2021/08/29 04:35:22;;;;;;;5.00;4.57;;;13.70;99.90;;;;;;5026053;28;20226;-49
2021/08/29 04:37:49;;;;;;;5.50;5.00;;;13.70;99.90;;;;;;5023791;28;20519;-49
2021/08/29 04:40:15;;;;;;;5.82;5.32;;;13.50;99.90;;;;;;5024756;28;20179;-50
2021/08/29 04:42:41;;;;;;;4.93;4.43;;;13.60;99.90;;;;;;5022975;28;20225;-50
2021/08/29 04:45:06;;;;;;;6.27;5.63;;;13.70;99.90;;;;;;5026814;28;20193;-50
2021/08/29 04:47:32;;;;;;;6.23;5.63;;;13.50;99.90;;;;;;5024363;28;20206;-49
2021/08/29 04:49:58;;;;;;;6.70;5.70;;;13.60;99.90;;;;;;5026273;28;20460;-50
2021/08/29 04:52:23;;;;;;;6.00;5.40;;;13.70;99.90;;;;;;5020420;28;20182;-50
2021/08/29 04:54:49;;;;;;;7.63;4.93;;;13.80;99.90;;;;;;5025604;28;20736;-49
2021/08/29 04:57:15;;;;;;;6.03;5.50;;;13.70;99.90;;;;;;5028357;28;20216;-50
2021/08/29 04:59:40;;;;;;;6.60;5.23;;;13.80;99.90;;;;;;5016900;28;20210;-51
2021/08/29 05:02:06;;;;;;;6.27;5.67;;;14.10;99.90;;;;;;5026932;28;20552;-49
2021/08/29 05:04:32;;;;;;;6.40;5.80;;;14.00;99.90;;;;;;5025517;28;20182;-49
2021/08/29 05:06:57;;;;;;;6.23;5.63;;;14.00;99.90;;;;;;5023961;28;20217;-48
2021/08/29 05:09:23;;;;;;;6.30;5.67;;;13.70;99.90;;;;;;5030307;28;20186;-49
2021/08/29 05:11:49;;;;;;;6.93;6.23;;;13.90;99.90;;;;;;5017648;28;20187;-50
2021/08/29 05:14:15;;;;;;;6.63;5.93;;;14.00;99.90;;;;;;5028451;28;20193;-48
2021/08/29 05:16:40;;;;;;;6.03;5.43;;;13.90;99.90;;;;;;5026457;28;21048;-49
2021/08/29 05:19:06;;;;;;;5.40;4.90;;;14.10;99.90;;;;;;5028566;28;20182;-49
2021/08/29 05:21:32;;;;;;;5.57;5.07;;;13.90;99.90;;;;;;5016559;28;20193;-48
2021/08/29 05:23:58;;;;;;;6.00;5.40;;;13.90;99.90;;;;;;5029486;28;20190;-48
2021/08/29 05:26:23;;;;;;;6.77;4.87;;;13.80;99.90;;;;;;5021046;28;20583;-49
2021/08/29 05:28:49;;;;;;;9.47;6.20;;;14.00;99.90;;;;;;5026350;28;20441;-48
2021/08/29 05:31:15;;;;;;;5.43;4.93;;;14.00;99.90;;;;;;5028387;28;20217;-49
2021/08/29 05:33:40;;;;;;;6.87;5.13;;;14.00;99.90;;;;;;5022024;28;20185;-49
2021/08/29 05:36:06;;;;;;;7.30;6.60;;;14.00;99.90;;;;;;5024090;28;20298;-50
2021/08/29 05:38:32;;;;;;;5.87;5.30;;;14.10;99.90;;;;;;5028605;28;20577;-50
2021/08/29 05:40:57;;;;;;;5.53;5.03;;;13.70;99.90;;;;;;5027129;28;20175;-49
2021/08/29 05:43:23;;;;;;;5.63;5.13;;;13.90;99.90;;;;;;5019927;28;20258;-48
2021/08/29 05:45:49;;;;;;;5.70;5.20;;;13.90;99.90;;;;;;5028959;28;20183;-51
2021/08/29 05:48:14;;;;;;;5.63;5.13;;;13.80;99.90;;;;;;5023719;28;20210;-50
2021/08/29 05:50:40;;;;;;;5.97;5.37;;;13.90;99.90;;;;;;5020173;28;20188;-50
2021/08/29 05:53:06;;;;;;;6.37;5.70;;;13.90;99.90;;;;;;5015482;28;20236;-51
2021/08/29 05:55:31;;;;;;;4.47;3.90;;;13.60;99.90;;;;;;5022848;28;20664;-51
2021/08/29 05:57:57;;;;;;;4.57;4.17;;;13.90;99.90;;;;;;5021461;28;20228;-52
2021/08/29 06:00:23;;;;;;;4.20;3.80;;;13.80;99.90;;;;;;5023655;28;20213;-51
2021/08/29 06:02:48;;;;;;;4.80;4.40;;;13.90;99.90;;;;;;5030429;28;20182;-51
2021/08/29 06:05:14;;;;;;;5.20;3.93;;;14.00;99.90;;;;;;5015775;28;20814;-51
2021/08/29 06:07:40;;;;;;;4.63;4.20;;;14.00;99.90;;;;;;5022864;28;20569;-51
2021/08/29 06:10:06;;;;;;;4.00;3.70;;;14.30;99.90;;;;;;5019513;28;20189;-52
2021/08/29 06:12:31;;;;;;;3.97;3.55;;;14.20;99.90;;;;;;5024033;28;20182;-52
2021/08/29 06:14:57;;;;;;;3.30;3.00;;;14.20;99.90;;;;;;5026951;28;20575;-52
2021/08/29 06:17:23;;;;;;;4.10;3.70;;;14.30;99.90;;;;;;5025912;28;20214;-52
2021/08/29 06:19:48;;;;;;;5.00;4.50;;;14.20;99.90;;;;;;5026808;28;20178;-52
2021/08/29 06:22:14;;;;;;;3.00;2.80;;;14.10;99.90;;;;;;5027514;28;20178;-52
2021/08/29 06:24:40;;;;;;;3.43;3.13;;;14.10;99.90;;;;;;5026611;28;20185;-52
2021/08/29 06:27:05;;;;;;;2.90;2.70;;;14.00;99.90;;;;;;5034471;28;20210;-52
2021/08/29 06:29:31;;;;;;;2.57;2.37;;;14.10;99.90;;;;;;5022619;28;20190;-52
2021/08/29 06:31:57;;;;;;;2.70;2.50;;;14.40;99.90;;;;;;5026528;28;20191;-51
2021/08/29 06:34:22;;;;;;;2.90;2.70;;;13.70;99.90;;;;;;5018718;28;20671;-52
2021/08/29 06:36:48;;;;;;;2.73;2.53;;;14.20;99.90;;;;;;5021182;28;20229;-51
2021/08/29 06:39:14;;;;;;;2.87;2.67;;;14.10;99.90;;;;;;5025733;28;20182;-51
2021/08/29 06:41:40;;;;;;;2.60;2.40;;;14.20;99.90;;;;;;5015928;28;20220;-50
2021/08/29 06:44:06;;;;;;;3.00;2.80;;;14.30;99.90;;;;;;5012351;28;20190;-51
2021/08/29 06:46:32;;;;;;;2.30;2.20;;;14.10;99.90;;;;;;5026229;28;20206;-51
2021/08/29 06:48:57;;;;;;;2.13;2.03;;;14.20;99.90;;;;;;5021525;28;20190;-51
2021/08/29 06:51:23;;;;;;;2.67;1.90;;;14.40;99.90;;;;;;5024333;28;20620;-52
2021/08/29 06:53:49;;;;;;;2.10;1.90;;;14.60;99.90;;;;;;5029867;28;20189;-52
2021/08/29 06:56:14;;;;;;;2.40;2.20;;;14.30;99.90;;;;;;5028499;28;20276;-50
2021/08/29 06:58:40;;;;;;;2.60;2.40;;;14.50;99.90;;;;;;5026097;28;20183;-51
2021/08/29 07:01:06;;;;;;;2.10;1.93;;;14.30;99.90;;;;;;5018337;28;20190;-52
2021/08/29 07:03:32;;;;;;;2.27;2.07;;;14.20;99.90;;;;;;5028690;28;20182;-51
2021/08/29 07:05:57;;;;;;;1.80;1.70;;;14.00;99.90;;;;;;5029245;28;20524;-51
2021/08/29 07:08:23;;;;;;;2.63;1.90;;;14.10;99.90;;;;;;5027919;28;20217;-51
2021/08/29 07:10:49;;;;;;;1.50;1.40;;;14.30;99.90;;;;;;5021025;28;20187;-52
2021/08/29 07:13:14;;;;;;;2.33;2.23;;;14.40;99.90;;;;;;5025514;28;20201;-52
2021/08/29 07:15:40;;;;;;;2.53;2.33;;;14.30;99.90;;;;;;5024676;28;20210;-51
2021/08/29 07:18:06;;;;;;;1.90;1.80;;;14.60;99.90;;;;;;5023253;28;20214;-51
2021/08/29 07:20:31;;;;;;;2.43;1.90;;;14.50;99.90;;;;;;5024349;28;20175;-51
2021/08/29 07:22:57;;;;;;;1.90;1.80;;;14.50;99.90;;;;;;5024648;28;20180;-52
2021/08/29 07:25:23;;;;;;;1.77;1.67;;;14.40;99.90;;;;;;5022343;28;20284;-51
2021/08/29 07:27:49;;;;;;;1.90;1.80;;;14.50;99.90;;;;;;5025096;28;20252;-52
2021/08/29 07:30:14;;;;;;;2.43;2.03;;;14.70;99.90;;;;;;5026315;28;20183;-52
2021/08/29 07:32:40;;;;;;;1.30;1.20;;;14.50;99.90;;;;;;5024223;28;20545;-52
2021/08/29 07:35:06;;;;;;;2.00;1.90;;;14.60;99.90;;;;;;5021245;28;20188;-53
2021/08/29 07:37:32;;;;;;;1.67;1.58;;;14.30;99.90;;;;;;5023256;28;20237;-50
2021/08/29 07:39:58;;;;;;;6.27;5.77;;;14.60;99.90;;;;;;5023935;28;20264;-50
2021/08/29 07:42:24;;;;;;;2.30;1.73;;;14.80;99.90;;;;;;5021506;28;20189;-49
2021/08/29 07:44:49;;;;;;;2.23;1.90;;;14.60;99.90;;;;;;5027246;28;20443;-50
2021/08/29 07:47:16;;;;;;;1.13;1.03;;;14.80;99.90;;;;;;5025663;28;20735;-51
2021/08/29 07:49:41;;;;;;;1.30;1.20;;;14.40;99.90;;;;;;5028213;28;20197;-49
2021/08/29 07:52:07;;;;;;;1.20;1.07;;;15.00;99.90;;;;;;5025250;28;20181;-50
2021/08/29 07:54:33;;;;;;;1.83;1.73;;;14.80;99.90;;;;;;5020587;28;20186;-48
2021/08/29 07:56:59;;;;;;;1.77;1.67;;;14.90;99.90;;;;;;5031117;28;20478;-49
2021/08/29 07:59:25;;;;;;;1.50;1.40;;;14.80;99.90;;;;;;5026780;28;20523;-49
2021/08/29 08:01:50;;;;;;;1.67;1.57;;;14.90;99.90;;;;;;5025691;28;20954;-50
2021/08/29 08:04:16;;;;;;;1.60;1.50;;;14.70;99.90;;;;;;5030823;28;20652;-49
2021/08/29 08:06:42;;;;;;;2.00;1.90;;;14.90;99.90;;;;;;5032787;28;20201;-49
2021/08/29 08:09:07;;;;;;;1.80;1.30;;;15.00;99.90;;;;;;5028016;28;20190;-49
2021/08/29 08:11:33;;;;;;;2.27;1.30;;;15.00;99.90;;;;;;5026910;28;20273;-49
2021/08/29 08:13:59;;;;;;;1.40;1.30;;;15.00;99.90;;;;;;5025584;28;20234;-48
2021/08/29 08:16:24;;;;;;;1.40;1.20;;;15.00;99.90;;;;;;5019711;28;20213;-49
2021/08/29 08:18:50;;;;;;;2.20;1.50;;;15.30;99.90;;;;;;5031112;28;20269;-49
2021/08/29 08:21:18;;;;;;;1.40;1.30;;;15.20;99.90;;;;;;5023723;28;20186;-49
2021/08/29 08:23:43;;;;;;;1.85;1.75;;;15.50;99.90;;;;;;5028856;28;20937;-49
2021/08/29 08:26:09;;;;;;;1.40;1.30;;;15.20;99.90;;;;;;5030403;28;20202;-49
2021/08/29 08:28:34;;;;;;;1.87;1.77;;;15.10;99.90;;;;;;5027014;28;20186;-50
2021/08/29 08:31:00;;;;;;;1.47;1.37;;;15.30;99.90;;;;;;5026804;28;20194;-49
2021/08/29 08:33:26;;;;;;;1.60;1.50;;;15.20;99.90;;;;;;5025752;28;20217;-50
2021/08/29 08:35:51;;;;;;;2.00;1.90;;;15.30;99.90;;;;;;5021743;28;20266;-50
2021/08/29 08:38:17;;;;;;;1.60;1.50;;;15.10;99.90;;;;;;5020418;28;20202;-50
2021/08/29 08:40:43;;;;;;;1.73;1.43;;;15.50;99.90;;;;;;5025479;28;20197;-50
2021/08/29 08:43:10;;;;;;;1.60;1.50;;;15.20;99.90;;;;;;5023681;28;20183;-49
2021/08/29 08:45:37;;;;;;;1.40;1.30;;;15.10;99.90;;;;;;5031440;28;20179;-52
2021/08/29 08:48:04;;;;;;;1.73;1.60;;;15.30;99.90;;;;;;5025383;28;20223;-51
2021/08/29 08:50:34;;;;;;;1.65;1.42;;;15.30;99.90;;;;;;5024410;28;20186;-50
2021/08/29 08:53:02;;;;;;;1.83;1.20;;;15.90;99.90;;;;;;5028788;28;20193;-50
2021/08/29 08:55:29;;;;;;;1.58;1.48;;;16.00;99.90;;;;;;5028468;28;20278;-49
2021/08/29 08:57:56;;;;;;;1.40;1.30;;;15.70;99.90;;;;;;5019288;28;20206;-51
2021/08/29 09:00:23;;;;;;;2.42;1.75;;;15.70;99.90;;;;;;5031244;28;20193;-51
2021/08/29 09:02:49;;;;;;;2.60;2.40;;;15.70;99.90;;;;;;5024781;28;20191;-49
2021/08/29 09:05:15;;;;;;;2.23;2.13;;;15.60;99.90;;;;;;5021600;28;20182;-50
2021/08/29 09:07:40;;;;;;;2.50;2.30;;;15.70;99.90;;;;;;5022160;28;20206;-49
2021/08/29 09:10:07;;;;;;;2.80;2.60;;;15.90;99.90;;;;;;5027915;28;20214;-49
2021/08/29 09:12:33;;;;;;;2.38;2.17;;;16.30;99.90;;;;;;5027138;28;20276;-49
2021/08/29 09:14:58;;;;;;;3.20;2.90;;;16.40;99.90;;;;;;5026757;28;20360;-49
2021/08/29 09:17:33;;;;;;;3.90;3.60;;;16.40;99.90;;;;;;5028507;28;20472;-50
2021/08/29 09:20:22;;;;;;;3.30;3.00;;;16.60;99.90;;;;;;5026731;28;20192;-50
2021/08/29 09:23:10;;;;;;;2.70;2.50;;;16.70;99.90;;;;;;5018910;28;20498;-50
2021/08/29 09:25:41;;;;;;;2.95;2.75;;;16.50;99.90;;;;;;5024075;28;20194;-51
2021/08/29 09:28:15;;;;;;;2.33;2.22;;;16.60;99.90;;;;;;5029772;28;20206;-51
2021/08/29 09:30:43;;;;;;;2.40;2.20;;;16.40;99.90;;;;;;5025266;28;20189;-51
2021/08/29 09:33:10;;;;;;;2.30;2.10;;;16.30;99.90;;;;;;5023043;28;20178;-50
2021/08/29 09:35:36;;;;;;;2.80;2.60;;;16.70;99.90;;;;;;5019815;28;20187;-49
2021/08/29 09:38:04;;;;;;;2.60;2.40;;;16.20;99.90;;;;;;5030506;28;20217;-50
2021/08/29 09:40:33;;;;;;;2.33;2.20;;;16.50;99.90;;;;;;5030291;28;20218;-51
2021/08/29 09:43:01;;;;;;;3.75;1.85;;;16.30;99.90;;;;;;5027844;28;20186;-50
2021/08/29 09:45:27;;;;;;;1.65;1.55;;;16.50;99.90;;;;;;5030256;28;20186;-50
2021/08/29 09:47:58;;;;;;;2.30;1.80;;;16.40;99.90;;;;;;5022547;28;20647;-49
2021/08/29 09:50:24;;;;;;;1.50;1.40;;;16.20;99.90;;;;;;5023944;28;20178;-49
2021/08/29 09:53:05;;;;;;;1.80;1.70;;;16.00;99.90;;;;;;5021926;28;20648;-51
2021/08/29 09:55:49;;;;;;;3.13;1.50;;;16.10;99.90;;;;;;5027067;28;20197;-49
2021/08/29 09:58:27;;;;;;;3.05;2.85;;;16.00;99.90;;;;;;5028728;28;20388;-50
2021/08/29 10:01:13;;;;;;;8.57;6.05;;;16.00;99.90;;;;;;5023544;28;20272;-50
2021/08/29 10:03:50;;;;;;;1.63;1.52;;;16.40;99.90;;;;;;5017147;28;20175;-50
2021/08/29 10:06:28;;;;;;;1.52;1.35;;;16.10;99.90;;;;;;5018513;28;20255;-49
2021/08/29 10:08:57;;;;;;;2.55;2.35;;;15.90;99.90;;;;;;5025416;28;20186;-50
2021/08/29 10:11:25;;;;;;;2.83;2.20;;;15.80;99.90;;;;;;5023295;28;20537;-51
2021/08/29 10:13:51;;;;;;;2.20;2.00;;;15.80;99.90;;;;;;5024920;28;20213;-51
2021/08/29 10:16:22;;;;;;;3.10;2.90;;;16.10;99.90;;;;;;5016313;28;20254;-50
2021/08/29 10:18:50;;;;;;;3.33;2.50;;;15.70;99.90;;;;;;5027890;28;20182;-49
2021/08/29 10:21:19;;;;;;;4.10;3.80;;;16.10;99.90;;;;;;5016286;28;20186;-50
2021/08/29 10:23:47;;;;;;;4.80;4.40;;;15.50;99.90;;;;;;5020447;28;20233;-50
2021/08/29 10:26:17;;;;;;;5.40;4.50;;;16.00;99.90;;;;;;5021391;28;20190;-50
2021/08/29 10:28:49;;;;;;;5.20;4.80;;;16.20;99.90;;;;;;5020202;28;20269;-49
2021/08/29 10:31:22;;;;;;;4.72;4.32;;;16.50;99.90;;;;;;5028145;28;20193;-48
2021/08/29 10:33:49;;;;;;;4.35;4.05;;;16.30;99.90;;;;;;5021819;28;20237;-49
2021/08/29 10:36:21;;;;;;;4.63;4.22;;;16.50;99.90;;;;;;5018206;28;20301;-50
2021/08/29 10:38:48;;;;;;;3.83;3.55;;;16.70;99.90;;;;;;5022188;28;20185;-51
2021/08/29 10:41:20;;;;;;;3.95;3.65;;;16.60;99.90;;;;;;5026443;28;20178;-50
2021/08/29 10:43:46;;;;;;;4.43;4.03;;;16.70;99.90;;;;;;5022613;28;20647;-50
2021/08/29 10:46:14;;;;;;;4.80;4.40;;;16.80;99.90;;;;;;5025227;28;20591;-50
2021/08/29 10:48:46;;;;;;;4.75;4.15;;;16.90;99.90;;;;;;5023751;28;20325;-49
2021/08/29 10:51:15;;;;;;;4.13;3.83;;;16.90;99.90;;;;;;5026768;28;20186;-49
2021/08/29 10:53:49;;;;;;;4.70;4.40;;;17.00;99.90;;;;;;5028081;28;20186;-49
2021/08/29 10:56:14;;;;;;;4.55;4.15;;;17.00;99.90;;;;;;5026394;28;20218;-49
2021/08/29 10:58:44;;;;;;;4.50;4.20;;;17.00;99.90;;;;;;5026511;28;20186;-48
2021/08/29 11:01:43;;;;;;;6.05;5.13;;;17.20;99.90;;;;;;5019397;28;20209;-49
2021/08/29 11:04:17;;;;;;;5.00;4.57;;;17.40;99.90;;;;;;5027485;28;20193;-49
2021/08/29 11:06:48;;;;;;;4.63;4.32;;;17.00;99.90;;;;;;5021758;28;20209;-49
2021/08/29 11:09:35;;;;;;;4.40;4.10;;;17.00;99.90;;;;;;5029637;28;20193;-50
2021/08/29 11:12:13;;;;;;;4.43;4.13;;;17.10;99.90;;;;;;5022725;28;20193;-50
2021/08/29 11:14:48;;;;;;;3.40;3.20;;;17.60;99.90;;;;;;5025432;28;20206;-49
2021/08/29 11:17:17;;;;;;;3.95;3.65;;;17.60;99.90;;;;;;5025635;28;20708;-50
2021/08/29 11:19:44;;;;;;;4.00;3.70;;;17.50;99.90;;;;;;5022819;28;20202;-49
2021/08/29 11:22:11;;;;;;;4.00;3.70;;;17.40;99.90;;;;;;5026445;28;20549;-49
2021/08/29 11:24:54;;;;;;;4.40;4.10;;;17.60;99.90;;;;;;5028802;28;20213;-49
2021/08/29 11:27:44;;;;;;;3.85;3.50;;;17.90;99.90;;;;;;5026392;28;20210;-50
2021/08/29 11:30:21;;;;;;;3.58;3.28;;;17.90;99.90;;;;;;5031274;28;20209;-49
2021/08/29 11:33:10;;;;;;;3.70;3.40;;;18.00;99.90;;;;;;5032067;28;20299;-49
2021/08/29 11:35:49;;;;;;;3.55;3.35;;;18.30;99.90;;;;;;5024067;28;20919;-51
2021/08/29 11:38:24;;;;;;;3.90;3.60;;;18.40;99.90;;;;;;5027243;28;20684;-51
2021/08/29 11:40:55;;;;;;;4.28;3.97;;;18.50;99.90;;;;;;5026574;28;20793;-51
2021/08/29 11:43:26;;;;;;;3.75;3.55;;;18.50;99.90;;;;;;5024238;28;20183;-51
2021/08/29 11:46:03;;;;;;;4.00;3.70;;;18.60;99.90;;;;;;5029136;28;20190;-50
2021/08/29 11:48:31;;;;;;;4.25;3.75;;;18.60;99.90;;;;;;5026682;28;20186;-51
2021/08/29 11:50:57;;;;;;;3.70;3.50;;;18.50;99.90;;;;;;5023488;28;20200;-49
2021/08/29 11:53:24;;;;;;;3.80;3.60;;;18.10;99.90;;;;;;5019933;28;20282;-50
2021/08/29 11:56:19;;;;;;;3.72;3.42;;;18.20;99.90;;;;;;5030198;28;20205;-50
2021/08/29 11:58:46;;;;;;;3.72;3.50;;;18.40;99.90;;;;;;5016236;28;20209;-50
2021/08/29 12:01:13;;;;;;;3.25;3.05;;;18.40;99.90;;;;;;5031578;28;20210;-49
2021/08/29 12:03:39;;;;;;;3.20;3.00;;;18.60;99.90;;;;;;5022829;28;20187;-49
2021/08/29 12:06:11;;;;;;;3.42;3.22;;;18.80;99.90;;;;;;5026851;28;20197;-49
2021/08/29 12:09:04;;;;;;;3.17;2.97;;;18.90;99.90;;;;;;5026285;28;20182;-50
2021/08/29 12:11:35;;;;;;;3.22;3.00;;;18.80;99.90;;;;;;5025189;28;20193;-51
2021/08/29 12:14:21;;;;;;;3.50;3.28;;;18.70;99.90;;;;;;5025899;28;20238;-48
2021/08/29 12:16:53;;;;;;;2.80;2.60;;;18.60;99.90;;;;;;5024514;28;20301;-49
2021/08/29 12:19:23;;;;;;;2.83;2.63;;;18.60;99.90;;;;;;5022626;28;20634;-49
2021/08/29 12:21:49;;;;;;;3.40;3.15;;;18.50;99.90;;;;;;5018839;28;20186;-51
2021/08/29 12:24:25;;;;;;;2.75;2.55;;;18.50;99.90;;;;;;5024582;28;20198;-50
2021/08/29 12:27:06;;;;;;;3.35;3.15;;;18.40;99.90;;;;;;5026550;28;20212;-51
2021/08/29 12:29:41;;;;;;;3.40;3.10;;;18.40;99.90;;;;;;5031340;28;20192;-51
2021/08/29 12:32:09;;;;;;;3.50;3.20;;;18.20;99.90;;;;;;5031259;28;20185;-51
2021/08/29 12:34:36;;;;;;;3.45;3.25;;;18.10;99.90;;;;;;5029063;28;20182;-51
2021/08/29 12:37:04;;;;;;;3.90;3.60;;;18.20;99.90;;;;;;5017574;28;20216;-51
2021/08/29 12:39:30;;;;;;;3.90;3.60;;;18.10;99.90;;;;;;5020311;28;20213;-52
2021/08/29 12:42:13;;;;;;;3.03;2.83;;;18.10;99.90;;;;;;5030278;28;20613;-51
2021/08/29 12:44:39;;;;;;;3.55;3.25;;;18.10;99.90;;;;;;5030170;28;20441;-50
2021/08/29 12:47:05;;;;;;;3.07;2.87;;;18.10;99.90;;;;;;5028303;28;20733;-49
2021/08/29 12:49:31;;;;;;;3.63;3.33;;;18.20;99.90;;;;;;5020647;28;20266;-49
2021/08/29 12:51:57;;;;;;;3.72;3.42;;;18.20;99.90;;;;;;5019776;28;20201;-49
2021/08/29 12:54:23;;;;;;;4.90;4.50;;;18.30;99.90;;;;;;5022280;28;20189;-50